Detalii statie SOMALEX GHIMPATI [0000198E]

Toti senzorii

Date Temperatura solului [C]Precipitatii [mm]Voltaj baterie [mV]Leaf Wetness [Min]HC Air temperature [C]HC Relative humidity [%]Punctul de roua [C]
medieminmaxsumaultimatimpmedieminmaxmediemediemin
2019-08-15 20:00:00 22.2 22.2 22.3 0 6854 21.11 21.03 21.2 0 0 0
2019-08-15 20:10:00 22.2 22.2 22.3 0 6826 20.91 20.88 20.94 0 0 0
2019-08-15 20:20:00 22.2 22.2 22.2 0 6844 20.83 20.77 20.89 0 0 0
2019-08-15 20:30:00 22.1 22.1 22.1 0 6844 20.61 20.55 20.67 0 0 0
2019-08-15 20:40:00 22 22 22.1 0 6854 20.46 20.46 20.47 0 0 0
2019-08-15 20:50:00 22.1 22.1 22.1 0 6854 20.55 20.55 20.56 0 0 0
2019-08-15 21:00:00 22 21.9 22.1 0 6854 20.39 20.38 20.41 0 0 0
2019-08-15 21:10:00 21.9 21.9 21.9 0 6826 20.17 20.13 20.22 0 0 0
2019-08-15 21:20:00 21.9 21.9 21.9 0 6844 19.94 19.91 19.98 0 0 0
2019-08-15 21:30:00 21.8 21.8 21.9 0 6854 19.67 19.62 19.73 0 0 0
2019-08-15 21:40:00 21.8 21.8 21.8 0 6844 19.5 19.47 19.53 0 0 0
2019-08-15 21:50:00 21.8 21.8 21.9 0 6854 19.34 19.31 19.38 0 0 0
2019-08-15 22:00:00 21.8 21.8 21.8 0 6844 19.26 19.21 19.32 0 0 0
2019-08-15 22:10:00 21.7 21.7 21.8 0 6816 19.14 19.13 19.15 0 0 0
2019-08-15 22:20:00 21.6 21.5 21.7 0 6834 19.12 19.08 19.16 0 0 0
2019-08-15 22:30:00 21.6 21.5 21.7 0 6834 18.93 18.9 18.96 0 0 0
2019-08-15 22:40:00 21.5 21.5 21.6 0 6844 18.83 18.79 18.88 0 0 0
2019-08-15 22:50:00 21.7 21.6 21.8 0 6854 18.7 18.65 18.76 0 0 0
2019-08-15 23:00:00 21.6 21.6 21.6 0 6854 18.7 18.69 18.71 0 0 0
2019-08-15 23:10:00 21.5 21.4 21.7 0 6816 18.66 18.66 18.67 0 0 0
2019-08-15 23:20:00 21.4 21.4 21.5 0 6834 18.61 18.59 18.63 0 0 0
2019-08-15 23:30:00 21.4 21.4 21.5 0 6844 18.52 18.47 18.58 0 0 0
2019-08-15 23:40:00 21.3 21.2 21.4 0 6844 18.45 18.43 18.48 0 0 0
2019-08-15 23:50:00 21.3 21.3 21.3 0 6844 18.38 18.34 18.42 0 0 0
2019-08-16 00:00:00 21.3 21.3 21.3 0 6844 18.33 18.32 18.34 0 0 0
2019-08-16 00:10:00 21.2 21.1 21.3 0 6776 18.23 18.2 18.27 0 0 0
2019-08-16 00:20:00 21.1 21 21.3 0 6826 18.19 18.18 18.21 0 0 0
2019-08-16 00:30:00 21.3 21.3 21.3 0 6826 18.2 18.15 18.26 0 0 0
2019-08-16 00:40:00 21.2 21.2 21.2 0 6834 18.18 18.15 18.21 0 0 0
2019-08-16 00:50:00 21 21 21 0 6834 18.14 18.13 18.15 0 0 0
2019-08-16 01:00:00 21 21 21 0 6844 18.23 18.21 18.26 0 0 0
2019-08-16 01:10:00 21.1 21.1 21.2 0 6796 18.26 18.26 18.27 0 0 0
2019-08-16 01:20:00 21.1 21.1 21.1 0 6826 18.26 18.26 18.27 0 0 0
2019-08-16 01:30:00 21 21 21 0 6834 18.25 18.22 18.29 0 0 0
2019-08-16 01:40:00 21.1 21.1 21.1 0 6834 18.16 18.14 18.18 0 0 0
2019-08-16 01:50:00 21 20.9 21.1 0 6826 18.11 18.07 18.15 0 0 0
2019-08-16 02:00:00 20.8 20.8 20.9 0 6834 18.08 18.03 18.14 0 0 0
2019-08-16 02:10:00 20.8 20.7 20.9 0 6796 18.16 18.16 18.16 0 0 0
2019-08-16 02:20:00 20.9 20.9 20.9 0 6816 18.11 18.1 18.13 0 0 0
2019-08-16 02:30:00 20.9 20.9 20.9 0 6816 18.09 18.08 18.1 0 0 0
2019-08-16 02:40:00 20.8 20.7 20.9 0 6816 18.09 18.09 18.1 0 0 0
2019-08-16 02:50:00 20.9 20.9 21 0 6826 18.18 18.15 18.21 0 0 0
2019-08-16 03:00:00 20.7 20.7 20.8 0 6816 18.17 18.16 18.19 0 0 0
2019-08-16 03:10:00 20.8 20.8 20.8 0 6786 18.13 18.12 18.15 0 0 0
2019-08-16 03:20:00 20.6 20.6 20.7 0 6796 18.1 18.1 18.11 0 0 0
2019-08-16 03:30:00 20.7 20.6 20.8 0 6816 18.13 18.13 18.14 0 0 0
2019-08-16 03:40:00 20.7 20.6 20.8 0 6816 18.12 18.1 18.15 0 0 0
2019-08-16 03:50:00 20.7 20.6 20.8 0 6806 17.86 17.85 17.88 0 0 0